createdAt,value
2018-05-31T00:01:29.438Z,30.40
2018-05-31T00:03:57.994Z,30.40
2018-05-31T00:06:26.515Z,30.40
2018-05-31T00:08:54.855Z,30.40
2018-05-31T00:11:23.875Z,30.40
2018-05-31T00:13:52.189Z,30.40
2018-05-31T00:16:20.639Z,30.40
2018-05-31T00:18:48.886Z,30.40
2018-05-31T00:21:17.138Z,30.40
2018-05-31T00:23:45.363Z,30.40
2018-05-31T00:26:13.618Z,30.40
2018-05-31T00:28:41.918Z,30.40
2018-05-31T00:31:10.184Z,30.40
2018-05-31T00:33:38.675Z,30.40
2018-05-31T00:36:07.055Z,30.40
2018-05-31T00:38:35.739Z,30.40
2018-05-31T00:41:04.035Z,30.30
2018-05-31T00:43:32.400Z,30.40
2018-05-31T00:46:00.647Z,30.30
2018-05-31T00:48:28.886Z,30.30
2018-05-31T00:50:57.291Z,30.30
2018-05-31T00:53:26.320Z,30.30
2018-05-31T00:56:06.411Z,30.30
2018-05-31T00:58:34.654Z,30.30
2018-05-31T01:01:03.119Z,30.30
2018-05-31T01:03:31.492Z,30.30
2018-05-31T01:05:59.908Z,30.30
2018-05-31T01:08:28.263Z,30.30
2018-05-31T01:10:56.628Z,30.30
2018-05-31T01:13:24.943Z,30.30
2018-05-31T01:15:53.399Z,30.30
2018-05-31T01:18:21.866Z,30.30
2018-05-31T01:20:50.095Z,30.20
2018-05-31T01:23:18.419Z,30.20
2018-05-31T01:25:46.806Z,30.20
2018-05-31T01:28:15.175Z,30.20
2018-05-31T01:30:43.483Z,30.20
2018-05-31T01:33:11.732Z,30.20
2018-05-31T01:35:40.111Z,30.20
2018-05-31T01:38:20.208Z,30.20
2018-05-31T01:40:48.546Z,30.20
2018-05-31T01:43:16.788Z,30.20
2018-05-31T01:45:45.019Z,30.20
2018-05-31T01:48:13.374Z,30.20
2018-05-31T01:50:41.715Z,30.20
2018-05-31T01:53:10.131Z,30.20
2018-05-31T01:55:38.366Z,30.10
2018-05-31T01:58:06.607Z,30.10
2018-05-31T02:00:34.839Z,30.10
2018-05-31T02:03:04.766Z,30.20
2018-05-31T02:05:33.094Z,30.10
2018-05-31T02:08:01.631Z,30.10
2018-05-31T02:10:29.991Z,30.20
2018-05-31T02:12:59.007Z,30.10
2018-05-31T02:15:27.242Z,30.10
2018-05-31T02:17:55.691Z,30.10
2018-05-31T02:20:24.008Z,30.10
2018-05-31T02:22:52.387Z,30.10
2018-05-31T02:25:20.782Z,30.10
2018-05-31T02:27:49.148Z,30.10
2018-05-31T02:30:17.567Z,30.10
2018-05-31T02:32:45.893Z,30.10
2018-05-31T02:35:14.298Z,30.10
2018-05-31T02:37:42.691Z,30.10
2018-05-31T02:40:11.167Z,30.10
2018-05-31T02:42:39.456Z,30.00
2018-05-31T02:45:07.804Z,30.10
2018-05-31T02:47:36.171Z,30.10
2018-05-31T02:50:04.420Z,30.00
2018-05-31T02:52:32.801Z,30.10
2018-05-31T02:55:01.366Z,30.10
2018-05-31T02:57:29.598Z,30.00
2018-05-31T02:59:58.091Z,30.00
2018-05-31T03:02:26.585Z,30.00
2018-05-31T03:04:54.925Z,30.00
2018-05-31T03:07:23.249Z,30.00
2018-05-31T03:09:51.505Z,30.00
2018-05-31T03:12:19.752Z,30.00
2018-05-31T03:14:48.260Z,30.00
2018-05-31T03:17:16.600Z,30.00
2018-05-31T03:19:44.846Z,30.00
2018-05-31T03:22:13.082Z,30.00
2018-05-31T03:24:41.563Z,30.00
2018-05-31T03:27:09.783Z,30.00
2018-05-31T03:29:38.234Z,30.00
2018-05-31T03:32:06.523Z,30.00
2018-05-31T03:34:34.846Z,30.00
2018-05-31T03:37:03.354Z,30.00
2018-05-31T05:01:29.650Z,29.90
2018-05-31T05:03:57.871Z,29.70
2018-05-31T05:06:26.124Z,29.70
2018-05-31T05:08:54.352Z,29.70
2018-05-31T05:11:22.823Z,29.70
2018-05-31T05:13:51.190Z,29.70
2018-05-31T05:16:19.615Z,29.70
2018-05-31T05:18:47.843Z,29.70
2018-05-31T05:21:16.143Z,29.70
2018-05-31T05:23:44.523Z,29.70
2018-05-31T05:26:12.763Z,29.70
2018-05-31T05:28:40.991Z,29.70
2018-05-31T05:31:09.352Z,29.70
2018-05-31T05:33:37.580Z,29.70
2018-05-31T05:36:05.971Z,29.70
2018-05-31T05:38:34.216Z,29.70
2018-05-31T05:41:02.731Z,29.70
2018-05-31T05:43:31.188Z,29.70
2018-05-31T05:45:59.514Z,29.70
2018-05-31T05:48:27.887Z,29.70
2018-05-31T05:50:56.382Z,29.70
2018-05-31T05:53:24.709Z,29.80
2018-05-31T05:55:53.431Z,29.70
2018-05-31T05:58:21.691Z,29.70
2018-05-31T06:00:49.910Z,29.70
2018-05-31T06:03:18.271Z,29.80
2018-05-31T06:05:46.523Z,29.80
2018-05-31T06:08:14.947Z,29.70
2018-05-31T06:10:43.408Z,29.80
2018-05-31T06:13:11.731Z,29.80
2018-05-31T06:15:40.027Z,29.80
2018-05-31T06:18:08.464Z,29.80
2018-05-31T06:20:36.923Z,29.80
2018-05-31T06:23:05.796Z,29.70
2018-05-31T06:25:34.154Z,29.70
2018-05-31T06:28:02.667Z,29.80
2018-05-31T06:30:31.043Z,29.70
2018-05-31T06:32:59.414Z,29.80
2018-05-31T06:35:28.597Z,29.80
2018-05-31T06:37:56.865Z,29.70
2018-05-31T06:40:25.103Z,29.80
2018-05-31T06:42:53.470Z,29.80
2018-05-31T06:45:21.669Z,29.70
2018-05-31T06:47:49.952Z,29.80
2018-05-31T06:50:18.170Z,29.70
2018-05-31T06:52:46.455Z,29.80
2018-05-31T06:55:14.861Z,29.80
2018-05-31T06:57:43.206Z,29.80
2018-05-31T07:00:11.479Z,29.70
2018-05-31T07:02:39.887Z,29.80
2018-05-31T07:05:08.202Z,29.70
2018-05-31T07:07:36.440Z,29.80
2018-05-31T07:10:04.655Z,29.80
2018-05-31T07:12:32.891Z,29.80
2018-05-31T07:15:01.112Z,29.70
2018-05-31T07:17:29.344Z,29.70
2018-05-31T07:19:57.862Z,29.80
2018-05-31T07:22:26.099Z,29.70
2018-05-31T07:24:54.335Z,29.70
2018-05-31T07:27:22.731Z,29.80
2018-05-31T07:29:51.092Z,29.70
2018-05-31T07:32:19.452Z,29.70
2018-05-31T07:34:47.847Z,29.70
2018-05-31T07:37:16.339Z,29.70
2018-05-31T07:39:44.599Z,29.70
2018-05-31T07:42:12.967Z,29.70
2018-05-31T07:44:41.290Z,29.70
2018-05-31T07:47:09.548Z,29.80
2018-05-31T07:49:37.846Z,29.70
2018-05-31T07:52:06.207Z,29.70
2018-05-31T07:54:34.658Z,29.70
2018-05-31T07:57:02.876Z,29.70
2018-05-31T07:59:31.141Z,29.70
2018-05-31T08:01:59.419Z,29.70
2018-05-31T08:04:27.887Z,29.80
2018-05-31T08:06:56.139Z,29.70
2018-05-31T08:09:24.563Z,29.70
2018-05-31T08:11:52.785Z,29.70
2018-05-31T08:14:21.015Z,29.70
2018-05-31T08:16:49.479Z,29.70
2018-05-31T08:19:17.715Z,29.70
2018-05-31T08:21:46.099Z,29.80
2018-05-31T08:24:14.339Z,29.80
2018-05-31T08:26:42.559Z,29.80
2018-05-31T08:29:10.943Z,29.70
2018-05-31T08:31:39.738Z,29.70
2018-05-31T08:34:08.046Z,29.70
2018-05-31T08:36:36.266Z,29.70
2018-05-31T08:39:05.177Z,29.70
2018-05-31T08:41:34.165Z,29.70
2018-05-31T08:44:03.204Z,29.70
2018-05-31T08:46:31.470Z,29.70
2018-05-31T08:48:59.706Z,29.80
2018-05-31T08:51:28.008Z,29.70
2018-05-31T08:53:56.378Z,29.70
2018-05-31T08:56:24.663Z,29.70
2018-05-31T08:58:52.900Z,29.70
2018-05-31T09:01:21.219Z,29.70
2018-05-31T09:03:49.450Z,29.70
2018-05-31T09:06:17.947Z,29.70
2018-05-31T09:08:46.946Z,29.70
2018-05-31T09:11:15.960Z,29.70
2018-05-31T09:13:44.336Z,29.70
2018-05-31T09:16:12.706Z,29.70
2018-05-31T09:18:41.330Z,29.70
2018-05-31T09:21:09.562Z,29.70
2018-05-31T09:23:37.782Z,29.70
2018-05-31T09:26:06.227Z,29.80
2018-05-31T09:28:34.536Z,29.80
2018-05-31T09:31:02.739Z,29.70
2018-05-31T09:33:31.051Z,29.70
2018-05-31T09:35:59.319Z,29.70
2018-05-31T09:38:27.676Z,29.70
2018-05-31T09:40:56.103Z,29.70
2018-05-31T09:43:24.574Z,29.70
2018-05-31T09:45:52.858Z,29.80
2018-05-31T09:48:21.179Z,29.80
2018-05-31T09:50:49.410Z,29.80
2018-05-31T09:53:17.630Z,29.80
2018-05-31T09:55:45.863Z,29.80
2018-05-31T09:58:14.095Z,29.80
2018-05-31T10:00:42.427Z,29.80
2018-05-31T10:03:10.651Z,29.80
2018-05-31T10:05:39.652Z,29.80
2018-05-31T10:08:08.655Z,29.80
2018-05-31T10:10:36.982Z,29.80
2018-05-31T10:13:05.319Z,29.80
2018-05-31T10:15:33.716Z,29.80
2018-05-31T10:18:02.175Z,29.80
2018-05-31T10:20:30.415Z,29.80
2018-05-31T10:22:58.842Z,29.80
2018-05-31T10:25:27.076Z,29.80
2018-05-31T10:27:55.378Z,29.80
2018-05-31T10:30:23.755Z,29.80
2018-05-31T10:32:52.140Z,29.70
2018-05-31T10:35:20.354Z,29.80
2018-05-31T10:37:48.592Z,29.80
2018-05-31T10:40:16.867Z,29.80
2018-05-31T10:42:45.226Z,29.80
2018-05-31T10:45:13.718Z,29.80
2018-05-31T10:47:42.059Z,29.80
2018-05-31T10:50:10.280Z,29.80
2018-05-31T10:52:38.515Z,29.80
2018-05-31T10:55:06.796Z,29.80
2018-05-31T10:57:35.306Z,29.80
2018-05-31T11:00:03.682Z,29.80
2018-05-31T11:02:31.919Z,29.80
2018-05-31T11:05:00.139Z,29.80
2018-05-31T11:07:28.431Z,29.80
2018-05-31T11:09:56.654Z,29.80
2018-05-31T11:12:24.889Z,29.80
2018-05-31T11:14:53.295Z,29.80
2018-05-31T11:17:21.639Z,29.80
2018-05-31T11:19:49.963Z,29.80
2018-05-31T11:22:18.194Z,29.80
2018-05-31T11:24:46.411Z,29.80
2018-05-31T11:27:14.643Z,29.90
2018-05-31T11:29:42.859Z,29.90
2018-05-31T11:32:11.090Z,29.80
2018-05-31T11:34:39.328Z,29.90
2018-05-31T11:37:07.822Z,29.80
2018-05-31T11:39:36.075Z,29.80
2018-05-31T11:42:04.315Z,29.80
2018-05-31T11:44:32.540Z,29.90
2018-05-31T11:47:00.760Z,29.90
2018-05-31T11:49:29.107Z,29.90
2018-05-31T11:51:57.325Z,29.90
2018-05-31T11:54:25.570Z,29.80
2018-05-31T11:56:54.103Z,29.90
2018-05-31T11:59:22.343Z,29.90
2018-05-31T12:01:50.559Z,29.90
2018-05-31T12:04:18.982Z,29.90
2018-05-31T12:06:47.201Z,29.90
2018-05-31T12:09:15.514Z,29.90
2018-05-31T12:11:43.758Z,29.90
2018-05-31T12:14:11.990Z,30.00
2018-05-31T12:16:40.216Z,29.90
2018-05-31T12:19:08.446Z,30.00
2018-05-31T12:21:36.663Z,30.00
2018-05-31T12:24:05.090Z,30.00
2018-05-31T12:26:33.563Z,30.00
2018-05-31T12:29:01.819Z,30.00
2018-05-31T12:31:30.035Z,30.00
2018-05-31T12:33:58.275Z,30.00
2018-05-31T12:36:26.667Z,30.00
2018-05-31T12:38:55.142Z,30.00
2018-05-31T12:41:23.510Z,30.00
2018-05-31T12:43:51.890Z,30.00
2018-05-31T12:46:20.146Z,30.10
2018-05-31T12:48:48.540Z,30.00
2018-05-31T12:51:16.755Z,30.00
2018-05-31T12:53:48.147Z,30.10
2018-05-31T12:56:16.354Z,30.00
2018-05-31T12:58:44.622Z,30.00
2018-05-31T13:01:12.952Z,30.10
2018-05-31T13:03:41.174Z,30.00
2018-05-31T13:06:09.460Z,30.00
2018-05-31T13:08:37.791Z,30.10
2018-05-31T13:11:06.029Z,30.10
2018-05-31T13:13:34.301Z,30.10
2018-05-31T13:16:02.546Z,30.00
2018-05-31T13:18:30.939Z,30.10
2018-05-31T13:20:59.295Z,30.10
2018-05-31T13:23:27.519Z,30.10
2018-05-31T13:25:55.863Z,30.10
2018-05-31T13:28:24.247Z,30.10
2018-05-31T13:30:52.479Z,30.10
2018-05-31T13:33:21.029Z,30.10
2018-05-31T13:35:49.259Z,30.10
2018-05-31T13:38:17.618Z,30.10
2018-05-31T13:40:45.851Z,30.20
2018-05-31T13:43:14.145Z,30.10
2018-05-31T13:45:42.467Z,30.10
2018-05-31T13:48:10.692Z,30.10
2018-05-31T13:50:38.923Z,30.10
2018-05-31T13:53:07.139Z,30.10
2018-05-31T13:55:35.465Z,30.20
2018-05-31T13:58:04.443Z,30.20
2018-05-31T14:00:32.854Z,30.20
2018-05-31T14:03:01.132Z,30.20
2018-05-31T14:05:29.610Z,30.20
2018-05-31T14:07:57.856Z,30.20
2018-05-31T14:10:26.239Z,30.20
2018-05-31T14:12:54.753Z,30.20
2018-05-31T14:15:23.133Z,30.30
2018-05-31T14:17:51.386Z,30.30
2018-05-31T14:20:19.609Z,30.30
2018-05-31T14:22:47.871Z,30.30
2018-05-31T14:25:16.094Z,30.30
2018-05-31T14:27:45.206Z,30.30
2018-05-31T14:30:13.431Z,30.30
2018-05-31T14:32:41.774Z,30.30
2018-05-31T14:35:09.995Z,30.30
2018-05-31T14:37:38.419Z,30.40
2018-05-31T14:40:06.635Z,30.30
2018-05-31T14:42:35.004Z,30.40
2018-05-31T14:45:03.216Z,30.40
2018-05-31T14:47:31.450Z,30.40
2018-05-31T14:49:59.808Z,30.40
2018-05-31T14:52:28.111Z,30.40
2018-05-31T14:54:56.567Z,30.40
2018-05-31T14:57:24.832Z,30.40
2018-05-31T14:59:53.047Z,30.50
2018-05-31T15:02:21.292Z,30.50
2018-05-31T15:04:49.511Z,30.50
2018-05-31T15:07:17.767Z,30.50
2018-05-31T15:09:49.205Z,30.50
2018-05-31T15:12:17.592Z,30.60
2018-05-31T15:14:45.951Z,30.60
2018-05-31T15:17:14.319Z,30.60
2018-05-31T15:19:42.560Z,30.60
2018-05-31T15:22:10.879Z,30.60
2018-05-31T15:24:39.143Z,30.60
2018-05-31T15:27:07.649Z,30.60
2018-05-31T15:29:36.712Z,30.70
2018-05-31T15:32:04.927Z,30.70
2018-05-31T15:34:33.159Z,30.70
2018-05-31T15:37:01.379Z,30.70
2018-05-31T15:39:29.840Z,30.70
2018-05-31T15:41:58.152Z,30.70
2018-05-31T15:44:26.484Z,30.70
2018-05-31T15:46:54.970Z,30.70
2018-05-31T15:49:23.217Z,30.70
2018-05-31T15:51:51.604Z,30.70
2018-05-31T15:54:19.835Z,30.70
2018-05-31T15:56:48.079Z,30.80
2018-05-31T15:59:16.438Z,30.80
2018-05-31T16:01:44.940Z,30.80
2018-05-31T16:04:13.175Z,30.80
2018-05-31T16:06:41.391Z,30.80
2018-05-31T16:09:09.626Z,30.80
2018-05-31T16:11:37.844Z,30.80
2018-05-31T16:14:06.095Z,30.80
2018-05-31T16:16:34.310Z,30.80
2018-05-31T16:19:02.547Z,30.80
2018-05-31T16:21:31.031Z,30.80
2018-05-31T16:24:00.243Z,30.90
2018-05-31T16:26:28.724Z,30.90
2018-05-31T16:28:57.050Z,30.90
2018-05-31T16:31:25.276Z,30.90
2018-05-31T16:33:53.546Z,30.90
2018-05-31T16:36:21.934Z,30.90
2018-05-31T16:38:50.178Z,30.90
2018-05-31T16:41:18.611Z,30.90
2018-05-31T16:43:46.963Z,30.90
2018-05-31T16:46:15.323Z,30.90
2018-05-31T16:48:43.824Z,30.90
2018-05-31T16:51:12.204Z,30.90
2018-05-31T16:53:40.491Z,30.90
2018-05-31T16:56:08.842Z,30.90
2018-05-31T16:58:37.068Z,30.90
2018-05-31T17:01:05.308Z,30.90
2018-05-31T17:03:33.682Z,31.00
2018-05-31T17:06:01.924Z,31.00
2018-05-31T17:08:30.138Z,31.00
2018-05-31T17:10:58.495Z,30.90
2018-05-31T17:13:26.710Z,30.90
2018-05-31T17:15:55.064Z,31.00
2018-05-31T17:18:23.438Z,30.90
2018-05-31T17:20:51.679Z,31.00
2018-05-31T17:23:20.200Z,30.90
2018-05-31T17:25:48.584Z,30.90
2018-05-31T17:28:16.951Z,30.90
2018-05-31T17:30:45.643Z,30.90
2018-05-31T17:33:13.920Z,30.90
2018-05-31T17:35:42.154Z,30.90
2018-05-31T17:38:10.376Z,30.90
2018-05-31T17:40:38.611Z,30.90
2018-05-31T17:43:06.831Z,30.90
2018-05-31T17:45:35.219Z,30.90
2018-05-31T17:48:03.444Z,30.90
2018-05-31T17:50:31.675Z,30.90
2018-05-31T17:53:00.128Z,30.90
2018-05-31T17:55:28.510Z,30.90
2018-05-31T17:57:56.728Z,30.90
2018-05-31T18:00:25.147Z,30.90
2018-05-31T18:02:53.539Z,30.90
2018-05-31T18:05:22.015Z,30.90
2018-05-31T18:07:50.394Z,30.90
2018-05-31T18:10:18.631Z,30.90
2018-05-31T18:12:47.119Z,30.90
2018-05-31T18:15:15.416Z,30.90
2018-05-31T18:17:43.773Z,30.90
2018-05-31T18:20:12.014Z,30.90
2018-05-31T18:22:40.239Z,30.90
2018-05-31T18:25:08.735Z,30.90
2018-05-31T18:27:36.955Z,30.80
2018-05-31T18:30:05.178Z,30.80
2018-05-31T18:32:34.189Z,30.80
2018-05-31T18:35:02.459Z,30.80
2018-05-31T18:37:30.824Z,30.80
2018-05-31T18:39:59.081Z,30.80
2018-05-31T18:42:27.283Z,30.80
2018-05-31T18:44:55.515Z,30.80
2018-05-31T18:47:23.776Z,30.80
2018-05-31T18:49:52.088Z,30.80
2018-05-31T18:52:20.478Z,30.80
2018-05-31T18:54:48.839Z,30.80
2018-05-31T18:57:17.229Z,30.80
2018-05-31T18:59:45.936Z,30.80
2018-05-31T19:02:14.176Z,30.80
2018-05-31T19:04:42.395Z,30.80
2018-05-31T19:07:10.749Z,30.80
2018-05-31T19:09:39.110Z,30.80
2018-05-31T19:12:07.342Z,30.80
2018-05-31T19:14:35.599Z,30.70
2018-05-31T19:17:03.986Z,30.70
2018-05-31T19:19:37.827Z,30.70
2018-05-31T19:22:06.241Z,30.70
2018-05-31T19:24:40.339Z,30.70
2018-05-31T19:27:08.643Z,30.70
2018-05-31T19:29:37.019Z,30.70
2018-05-31T19:32:05.282Z,30.70
2018-05-31T19:34:33.715Z,30.70
2018-05-31T19:37:07.438Z,30.60
2018-05-31T19:39:36.679Z,30.70
2018-05-31T19:42:04.924Z,30.70
2018-05-31T19:44:38.058Z,30.70
2018-05-31T19:47:06.306Z,30.60
2018-05-31T19:49:34.522Z,30.70
2018-05-31T19:52:08.427Z,30.70
2018-05-31T19:54:36.647Z,30.60
2018-05-31T19:57:04.878Z,30.70
2018-05-31T19:59:38.807Z,30.60
2018-05-31T20:02:12.767Z,30.60
2018-05-31T20:04:40.988Z,30.60
2018-05-31T20:07:09.319Z,30.60
2018-05-31T20:09:37.807Z,30.60
2018-05-31T20:12:06.047Z,30.60
2018-05-31T20:14:34.423Z,30.50
2018-05-31T20:17:02.655Z,30.60
2018-05-31T20:19:31.015Z,30.60
2018-05-31T20:21:59.252Z,30.50
2018-05-31T20:24:27.779Z,30.50
2018-05-31T20:26:56.035Z,30.50
2018-05-31T20:29:24.399Z,30.50
2018-05-31T20:31:52.640Z,30.50
2018-05-31T20:34:20.860Z,30.50
2018-05-31T20:36:49.367Z,30.50
2018-05-31T20:39:17.731Z,30.50
2018-05-31T20:41:46.290Z,30.50
2018-05-31T20:44:14.525Z,30.50
2018-05-31T20:46:42.743Z,30.40
2018-05-31T20:49:11.242Z,30.50
2018-05-31T20:51:39.522Z,30.40
2018-05-31T20:54:07.759Z,30.40
2018-05-31T20:56:35.984Z,30.50
2018-05-31T20:59:04.339Z,30.50
2018-05-31T21:01:32.699Z,30.40
2018-05-31T21:04:01.120Z,30.50
2018-05-31T21:06:29.497Z,30.40
2018-05-31T21:08:57.852Z,30.40
2018-05-31T21:11:26.211Z,30.40
2018-05-31T21:13:54.645Z,30.40
2018-05-31T21:16:22.968Z,30.40
2018-05-31T21:18:51.363Z,30.50
2018-05-31T21:21:19.754Z,30.40
2018-05-31T21:23:48.125Z,30.40
2018-05-31T21:26:16.344Z,30.50
2018-05-31T21:28:44.578Z,30.40
2018-05-31T21:31:13.234Z,30.40
2018-05-31T21:33:41.639Z,30.50
2018-05-31T21:36:09.999Z,30.40
2018-05-31T21:38:38.515Z,30.40
2018-05-31T21:41:06.747Z,30.40
2018-05-31T21:43:34.967Z,30.40
2018-05-31T21:46:03.194Z,30.40
2018-05-31T21:48:31.594Z,30.30
2018-05-31T21:51:00.090Z,30.30
2018-05-31T21:53:28.356Z,30.40
2018-05-31T21:55:56.575Z,30.30
2018-05-31T21:58:24.811Z,30.30
2018-05-31T22:00:55.944Z,30.40
2018-05-31T22:03:24.326Z,30.40
2018-05-31T22:05:52.691Z,30.30
2018-05-31T22:08:21.062Z,30.30
2018-05-31T22:10:49.279Z,30.40
2018-05-31T22:13:17.531Z,30.30
2018-05-31T22:15:45.931Z,30.30
2018-05-31T22:18:14.163Z,30.30
2018-05-31T22:20:42.378Z,30.30
2018-05-31T22:23:10.855Z,30.30
2018-05-31T22:25:39.234Z,30.30
2018-05-31T22:28:07.618Z,30.30
2018-05-31T22:30:35.996Z,30.30
2018-05-31T22:33:04.271Z,30.30
2018-05-31T22:35:32.751Z,30.30
2018-05-31T22:38:01.031Z,30.30
2018-05-31T22:40:29.397Z,30.30
2018-05-31T22:42:57.615Z,30.30
2018-05-31T22:45:25.851Z,30.30
2018-05-31T22:47:54.208Z,30.30
2018-05-31T22:50:22.711Z,30.30
2018-05-31T22:52:50.945Z,30.20
2018-05-31T22:55:19.468Z,30.20
2018-05-31T22:57:48.058Z,30.20
2018-05-31T23:00:19.846Z,30.20
2018-05-31T23:02:52.922Z,30.30
2018-05-31T23:05:21.155Z,30.20
2018-05-31T23:07:49.555Z,30.20
2018-05-31T23:10:17.920Z,30.20
2018-05-31T23:12:46.139Z,30.20
2018-05-31T23:15:14.484Z,30.20
2018-05-31T23:17:42.768Z,30.20
2018-05-31T23:20:11.159Z,30.20
2018-05-31T23:22:39.379Z,30.20
2018-05-31T23:25:07.620Z,30.20
2018-05-31T23:27:36.071Z,30.20
2018-05-31T23:30:04.497Z,30.20
2018-05-31T23:32:32.676Z,30.10
2018-05-31T23:35:00.906Z,30.10
2018-05-31T23:37:29.174Z,30.10
2018-05-31T23:39:57.575Z,30.10
2018-05-31T23:42:25.895Z,30.20
2018-05-31T23:44:54.207Z,30.20
2018-05-31T23:47:22.487Z,30.10
2018-05-31T23:49:50.864Z,30.10
2018-05-31T23:52:19.169Z,30.10
2018-05-31T23:54:47.503Z,30.20
2018-05-31T23:57:15.723Z,30.20
2018-05-31T23:59:43.959Z,30.10
